Thursday, May 24, 2018, 3:29 PM EDT
Back to Local

KRDG, Reading Regional Airport

Location: Reading, PA, United States Lat: 40.367
Local Time: 3:29 PM EDT (19:29 GMT) Lon: -75.967
Time Zone: US/Eastern Elev: 344 ft

Show me the last for .
Show Coded

Time T Td Feel RH Dir Speed Gust Alt SLP Vis Weather Sky Remarks
2018-05-24 14:54 83 50 - 31 310° 5 - 30.13 30.14 10 CLR None
2018-05-24 13:54 82 51 - 34 40° 3 - 30.14 30.15 10 CLR 6-hr Min Temp (2pm): 66.9°F
6-hr Max Temp (2pm): 82.9°F
2018-05-24 12:54 79 52 - 39 10° 6 - 30.15 30.16 10 CLR None
2018-05-24 11:54 76 50 77 40 30° 6 - 30.17 30.18 10 CLR None
2018-05-24 10:54 74 51 76 44 340° 10 - 30.18 30.19 10 CLR None
2018-05-24 09:54 72 52 76 49 350° 6 - 30.18 30.19 10 CLR None
2018-05-24 08:54 69 53 - 56 330° 8 - 30.18 30.19 10 CLR None
2018-05-24 07:54 66 58 - 75 340° 5 - 30.18 30.19 10 CLR 6-hr Min Temp (8am): 54.0°F
6-hr Max Temp (8am): 66.0°F
2018-05-24 06:54 58 57 - 96 360° 5 - 30.16 30.17 10 CLR None
2018-05-24 05:54 56 54 - 93 300° 3 - 30.13 30.14 10 CLR None
2018-05-24 04:54 56 55 - 96 320° 3 - 30.11 30.11 9 CLR None
2018-05-24 03:54 58 56 - 93 - Calm - 30.09 30.10 10 CLR None
2018-05-24 02:54 58 56 - 93 330° 3 - 30.09 30.09 10 CLR None
2018-05-24 01:54 59 57 - 93 - Calm - 30.08 30.09 10 CLR 6-hr Min Temp (2am): 57.9°F
6-hr Max Temp (2am): 73.9°F
2018-05-24 00:54 59 57 - 93 - Calm - 30.08 30.09 10 CLR 24-hr Min Temp (1am): 59.0°F
24-hr Max Temp (1am): 79.0°F
2018-05-23 23:54 63 57 - 80 220° 3 - 30.06 30.07 10 CLR None
2018-05-23 22:54 66 57 - 72 220° 3 - 30.05 30.06 10 CLR None
2018-05-23 21:54 68 57 - 67 - Calm - 30.04 30.05 10 CLR None
2018-05-23 20:54 70 57 - 63 260° 5 - 30.03 30.04 10 CLR None
2018-05-23 19:54 74 57 77 55 300° 8 - 30.01 30.02 10 CLR 6-hr Min Temp (8pm): 73.9°F
6-hr Max Temp (8pm): 79.0°F
2018-05-23 18:54 77 56 78 48 310° 10 - 30.00 30.01 10 CLR None
2018-05-23 17:54 78 55 79 45 320° 10 - 30.00 30.01 10 CLR None
2018-05-23 16:54 78 56 79 46 330° 9 - 30.00 30.01 10 CLR None
2018-05-23 15:54 77 57 79 50 340° 9 - 30.00 30.01 10 FEW045 None

Support USWX by starting your Amazon purchase here.